KMSY

Louis Armstrong New Orleans International Airport

New Orleans, Louisiana, USA
KMSY 251745Z 2518/2624 35006KT P6SM FEW250 FM260600 24007KT P6SM BKN150 FM261000 26010G18KT P6SM VCTS BKN008CB FM261600 30011KT P6SM SCT090
Issued Valid From Valid To
Apr-25 @ 17:45 UTC
(18 minutes ago)
Apr-25 @ 18:00 UTC
(3 minutes ago)
Apr-27 @ 00:00 UTC
(-1 days ago)
Apr-25 @ 18:00 to Apr-26 @ 06:00
KMSY 251745Z 2518/2624 35006KT P6SM FEW250
Wind Visibility Clouds
350° at 6 knots Greater than 6 miles
  • Few at 25,000' AGL
From Apr-26 @ 06:00 to Apr-26 @ 10:00
FM260600 24007KT P6SM BKN150
Wind Visibility Clouds
240° at 7 knots Greater than 6 miles
  • Broken at 15,000' AGL
From Apr-26 @ 10:00 to Apr-26 @ 16:00
FM261000 26010G18KT P6SM VCTS BKN008CB
Wind Visibility Clouds Conditions
260° at 10 knots
 Gusting to 18 knots
Greater than 6 miles
  • Broken at 800' AGL
  • Area Thunderstorm
From Apr-26 @ 16:00 to Apr-27 @ 00:00
FM261600 30011KT P6SM SCT090
Wind Visibility Clouds
300° at 11 knots Greater than 6 miles
  • Scattered at 9,000' AGL
KMSY 251745Z 2518/2624 35006KT P6SM FEW250 FM260600 24007KT P6SM BKN150 FM261000 26010G18KT P6SM VCTS BKN008CB FM261600 30011KT P6SM SCT090
Issued Apr-25 @ 17:45 UTC
(18 minutes ago)
Valid From Apr-25 @ 18:00 UTC
(3 minutes ago)
Valid To Apr-27 @ 00:00 UTC
(-1 days ago)
Apr-25 @ 18:00 - Apr-26 @ 06:00
Wind Visibility
350° at 6 knots Greater than 6 miles
Clouds
  • Few at 25,000' AGL
From Apr-26 @ 06:00 - Apr-26 @ 10:00
Wind Visibility
240° at 7 knots Greater than 6 miles
Clouds
  • Broken at 15,000' AGL
From Apr-26 @ 10:00 - Apr-26 @ 16:00
Wind Visibility
260° at 10 knots
 Gusting to 18 knots
Greater than 6 miles
Clouds
  • Broken at 800' AGL
Conditions
  • Area Thunderstorm
From Apr-26 @ 16:00 - Apr-27 @ 00:00
Wind Visibility
300° at 11 knots Greater than 6 miles
Clouds
  • Scattered at 9,000' AGL